Time;durP1;ratioP1;P1;durP2;ratioP2;P2;SDS_P1;SDS_P2;PMS_P1;PMS_P2;Temp;Humidity;BMP_temperature;BMP_pressure;BME280_temperature;BME280_humidity;BME280_pressure;Samples;Min_cycle;Max_cycle;Signal;HPM_P1;HPM_P2
2022/02/24 16:15:45;;;;;;;26.00;10.15;;;;;;;;;;5066428;28;20453;-62
2022/02/24 16:18:11;;;;;;;27.30;12.07;;;;;;;;;;5062219;28;20448;-63
2022/02/24 16:20:37;;;;;;;31.25;13.68;;;;;;;;;;5048150;28;20037;-65
2022/02/24 16:23:03;;;;;;;32.78;14.88;;;;;;;;;;5046302;28;20021;-63
2022/02/24 16:25:29;;;;;;;42.80;15.95;;;;;;;;;;5055146;28;20033;-63
2022/02/24 16:27:55;;;;;;;35.65;15.75;;;;;;;;;;5066344;28;20070;-63
2022/02/24 16:30:21;;;;;;;39.50;18.80;;;;;;;;;;5067701;28;20021;-64
2022/02/24 16:32:49;;;;;;;43.05;21.08;;;;;;;;;;5059309;28;20057;-61
2022/02/24 16:35:15;;;;;;;45.05;22.35;;;;;;;;;;5047941;28;20033;-64
2022/02/24 16:37:41;;;;;;;55.40;27.33;;;;;;;;;;5050317;28;20021;-61
2022/02/24 16:40:08;;;;;;;60.95;26.88;;;;;;;;;;5064336;28;20025;-65
2022/02/24 16:42:34;;;;;;;68.53;31.75;;;;;;;;;;5067430;28;20523;-61
2022/02/24 16:45:00;;;;;;;74.15;35.90;;;;;;;;;;5067495;28;20530;-63
2022/02/24 16:47:26;;;;;;;72.68;34.47;;;;;;;;;;5067497;28;20111;-64
2022/02/24 16:49:52;;;;;;;87.57;40.88;;;;;;;;;;5067328;28;20104;-65
2022/02/24 16:52:19;;;;;;;83.47;40.67;;;;;;;;;;5061741;28;20032;-66
2022/02/24 16:54:45;;;;;;;94.70;43.35;;;;;;;;;;5047486;28;20048;-65
2022/02/24 16:57:11;;;;;;;98.15;45.60;;;;;;;;;;5066342;28;20036;-62
2022/02/24 16:59:37;;;;;;;96.65;44.55;;;;;;;;;;5067338;28;20021;-63
2022/02/24 17:02:07;;;;;;;93.40;44.40;;;;;;;;;;5067402;28;20056;-62
2022/02/24 17:04:34;;;;;;;88.40;42.47;;;;;;;;;;5067251;28;20037;-61
2022/02/24 17:07:00;;;;;;;96.47;43.15;;;;;;;;;;5065604;28;20017;-62
2022/02/24 17:21:48;;;;;;;127.85;60.42;;;;;;;;;;5031891;28;20044;-62
2022/02/24 17:24:15;;;;;;;128.52;58.72;;;;;;;;;;5032509;28;20021;-63
2022/02/24 17:26:42;;;;;;;128.60;57.67;;;;;;;;;;5022445;28;20398;-61
2022/02/24 17:29:09;;;;;;;121.93;55.90;;;;;;;;;;5019898;28;20026;-69
2022/02/24 17:31:36;;;;;;;111.97;50.83;;;;;;;;;;5022830;28;20113;-62
2022/02/24 17:34:07;;;;;;;98.40;45.83;;;;;;;;;;5020059;28;20034;-64
2022/02/24 17:36:34;;;;;;;78.03;37.75;;;;;;;;;;5020733;28;20469;-62
2022/02/24 17:39:00;;;;;;;75.38;35.95;;;;;;;;;;5022854;28;20037;-65
2022/02/24 17:41:26;;;;;;;76.47;35.90;;;;;;;;;;5023147;28;20024;-64
2022/02/24 17:43:52;;;;;;;66.43;32.50;;;;;;;;;;5018671;28;20037;-62
2022/02/24 17:46:18;;;;;;;74.95;32.47;;;;;;;;;;5022190;28;20034;-61
2022/02/24 17:48:50;;;;;;;55.47;27.80;;;;;;;;;;5021355;28;20022;-62
2022/02/24 17:51:17;;;;;;;58.25;27.30;;;;;;;;;;5017032;28;20026;-63
2022/02/24 17:53:44;;;;;;;57.75;26.63;;;;;;;;;;5021610;28;20018;-61
2022/02/24 17:56:10;;;;;;;55.00;26.40;;;;;;;;;;5022276;28;20083;-60
2022/02/24 17:58:36;;;;;;;52.40;25.63;;;;;;;;;;5017201;28;20037;-60
2022/02/24 18:01:02;;;;;;;60.45;26.63;;;;;;;;;;5019729;28;20064;-65
2022/02/24 18:03:28;;;;;;;54.45;25.73;;;;;;;;;;5012559;28;20095;-63
2022/02/24 18:05:55;;;;;;;50.20;24.80;;;;;;;;;;5012820;28;20034;-64
2022/02/24 18:08:21;;;;;;;53.05;25.83;;;;;;;;;;5012322;28;20048;-64
2022/02/24 18:10:48;;;;;;;56.83;26.98;;;;;;;;;;5012045;28;20046;-62
2022/02/24 18:13:15;;;;;;;57.00;27.85;;;;;;;;;;5021632;28;20037;-68
2022/02/24 18:15:42;;;;;;;62.50;27.67;;;;;;;;;;5024485;28;20042;-65
2022/02/24 18:18:08;;;;;;;64.78;28.42;;;;;;;;;;5030526;28;20103;-66
2022/02/24 18:20:34;;;;;;;64.72;29.60;;;;;;;;;;5018229;28;20041;-60
2022/02/24 18:23:00;;;;;;;59.60;27.00;;;;;;;;;;5012663;28;20033;-62
2022/02/24 18:25:27;;;;;;;54.95;25.67;;;;;;;;;;5018711;28;20100;-61
2022/02/24 18:27:54;;;;;;;53.60;24.05;;;;;;;;;;5019835;28;20488;-61
2022/02/24 18:30:20;;;;;;;48.47;21.90;;;;;;;;;;5020892;28;20389;-65
2022/02/24 18:32:46;;;;;;;52.13;23.17;;;;;;;;;;5019795;28;20056;-63
2022/02/24 18:35:13;;;;;;;49.22;22.83;;;;;;;;;;5021381;28;20050;-63
2022/02/24 18:37:39;;;;;;;51.70;23.70;;;;;;;;;;5019724;28;20018;-61
2022/02/24 18:40:09;;;;;;;49.78;22.73;;;;;;;;;;5021091;28;20381;-62
2022/02/24 18:42:36;;;;;;;47.90;22.95;;;;;;;;;;5021845;28;20022;-64
2022/02/24 18:45:02;;;;;;;51.63;23.30;;;;;;;;;;5020984;28;20036;-62
2022/02/24 18:47:28;;;;;;;54.75;24.80;;;;;;;;;;5021602;28;20665;-66
2022/02/24 18:49:56;;;;;;;52.58;23.27;;;;;;;;;;5022048;28;20394;-64
2022/02/24 18:52:22;;;;;;;54.20;26.85;;;;;;;;;;5018607;28;20060;-68
2022/02/24 18:54:48;;;;;;;63.17;26.95;;;;;;;;;;5019883;28;20064;-62
2022/02/24 18:57:15;;;;;;;62.95;29.10;;;;;;;;;;5022067;28;20498;-61
2022/02/24 18:59:41;;;;;;;61.65;28.77;;;;;;;;;;5021242;28;20071;-62
2022/02/24 19:02:07;;;;;;;64.22;27.92;;;;;;;;;;5020926;28;20465;-61
2022/02/24 19:04:34;;;;;;;59.05;26.65;;;;;;;;;;5019699;28;20060;-69
2022/02/24 19:07:00;;;;;;;58.78;25.17;;;;;;;;;;5019452;28;20071;-61
2022/02/24 19:09:26;;;;;;;50.45;23.45;;;;;;;;;;5021470;28;20025;-61
2022/02/24 19:11:52;;;;;;;49.85;22.88;;;;;;;;;;5020163;28;20025;-67
2022/02/24 19:14:18;;;;;;;50.00;21.60;;;;;;;;;;5020262;28;20380;-64
2022/02/24 19:16:44;;;;;;;45.17;21.48;;;;;;;;;;5021340;28;20059;-61
2022/02/24 19:19:19;;;;;;;43.05;19.63;;;;;;;;;;5018639;28;20038;-61
2022/02/24 19:22:07;;;;;;;42.80;19.75;;;;;;;;;;5019371;28;20033;-61
2022/02/24 19:24:33;;;;;;;43.63;19.52;;;;;;;;;;5019916;28;20441;-63
2022/02/24 19:29:53;;;;;;;43.90;18.92;;;;;;;;;;5010739;28;20125;-61
2022/02/24 19:32:19;;;;;;;34.88;17.33;;;;;;;;;;5010495;28;20045;-66
2022/02/24 19:34:45;;;;;;;39.83;17.52;;;;;;;;;;5011070;28;20563;-62
2022/02/24 19:37:11;;;;;;;47.92;20.05;;;;;;;;;;5042187;28;20132;-67
2022/02/24 19:39:38;;;;;;;65.32;26.83;;;;;;;;;;5010324;28;20053;-66
2022/02/24 19:42:04;;;;;;;67.63;30.33;;;;;;;;;;5011480;28;20449;-70
2022/02/24 19:44:30;;;;;;;80.45;35.08;;;;;;;;;;5010541;28;20041;-72
2022/02/24 19:46:56;;;;;;;84.88;36.95;;;;;;;;;;5009651;28;20682;-70
2022/02/24 19:49:22;;;;;;;84.90;37.63;;;;;;;;;;5010731;28;20545;-64
2022/02/24 19:51:49;;;;;;;86.65;38.17;;;;;;;;;;5010240;28;20115;-66
2022/02/24 19:54:15;;;;;;;71.15;32.40;;;;;;;;;;5010551;28;20045;-67
2022/02/24 19:56:41;;;;;;;70.45;32.90;;;;;;;;;;5010415;28;20500;-62
2022/02/24 19:59:07;;;;;;;62.05;27.38;;;;;;;;;;5010891;28;20041;-66
2022/02/24 20:01:33;;;;;;;55.03;25.25;;;;;;;;;;5011050;28;20053;-63
2022/02/24 20:03:59;;;;;;;47.97;20.75;;;;;;;;;;5010551;28;20037;-68
2022/02/24 20:06:26;;;;;;;49.05;23.02;;;;;;;;;;5010644;28;20022;-62
2022/02/24 20:08:55;;;;;;;54.42;26.40;;;;;;;;;;5018699;28;20051;-62
2022/02/24 20:11:22;;;;;;;66.13;30.13;;;;;;;;;;5023603;28;20037;-66
2022/02/24 20:13:50;;;;;;;68.15;32.15;;;;;;;;;;5012007;28;20485;-62
2022/02/24 20:16:16;;;;;;;71.93;31.23;;;;;;;;;;5010538;28;20050;-61
2022/02/24 20:18:42;;;;;;;43.85;20.88;;;;;;;;;;5011313;28;20113;-63
2022/02/24 20:21:09;;;;;;;50.28;21.65;;;;;;;;;;5009880;28;20046;-68
2022/02/24 20:23:35;;;;;;;52.80;23.50;;;;;;;;;;5010991;28;20113;-62
2022/02/24 20:26:02;;;;;;;40.20;16.75;;;;;;;;;;5009693;28;20470;-63
2022/02/24 20:28:28;;;;;;;43.03;18.60;;;;;;;;;;5011065;28;20026;-68
2022/02/24 20:30:54;;;;;;;38.42;17.15;;;;;;;;;;5011144;28;20041;-63
2022/02/24 20:33:21;;;;;;;43.92;17.27;;;;;;;;;;5010940;28;20497;-63
2022/02/24 20:35:47;;;;;;;33.85;14.60;;;;;;;;;;5010585;28;20500;-65
2022/02/24 20:38:13;;;;;;;32.13;16.20;;;;;;;;;;5010788;28;20029;-67
2022/02/24 20:40:39;;;;;;;30.55;14.85;;;;;;;;;;5011109;28;20148;-67
2022/02/24 20:43:05;;;;;;;37.78;16.77;;;;;;;;;;5010665;28;20022;-61
2022/02/24 20:45:32;;;;;;;37.85;16.85;;;;;;;;;;5010448;28;20038;-61
2022/02/24 20:47:58;;;;;;;42.55;19.85;;;;;;;;;;5010648;28;20034;-63
2022/02/24 20:50:25;;;;;;;52.00;23.52;;;;;;;;;;5010906;28;20053;-62
2022/02/24 20:52:51;;;;;;;54.08;24.20;;;;;;;;;;5010536;28;20108;-60
2022/02/24 20:55:18;;;;;;;61.45;26.88;;;;;;;;;;5010848;28;20038;-60
2022/02/24 20:57:45;;;;;;;67.88;30.75;;;;;;;;;;5010298;28;20029;-60
2022/02/24 21:00:12;;;;;;;66.60;29.50;;;;;;;;;;5009855;28;20490;-62
2022/02/24 21:02:38;;;;;;;73.15;32.38;;;;;;;;;;5014203;28;20037;-69
2022/02/24 21:05:04;;;;;;;77.28;33.08;;;;;;;;;;4997833;28;20030;-62
2022/02/24 21:07:30;;;;;;;68.93;28.83;;;;;;;;;;4994646;28;20529;-67
2022/02/24 21:09:56;;;;;;;61.95;26.95;;;;;;;;;;4994740;28;20030;-66
2022/02/24 21:12:22;;;;;;;49.45;21.13;;;;;;;;;;4994352;28;20026;-63
2022/02/24 21:14:49;;;;;;;38.92;17.98;;;;;;;;;;5008380;28;20054;-62
2022/02/24 21:17:15;;;;;;;39.80;17.17;;;;;;;;;;5013825;28;20041;-64
2022/02/24 21:19:41;;;;;;;33.33;16.30;;;;;;;;;;5013851;28;20772;-63
2022/02/24 21:22:07;;;;;;;28.50;12.43;;;;;;;;;;5014080;28;20484;-63
2022/02/24 21:24:33;;;;;;;24.35;11.73;;;;;;;;;;5014162;28;20037;-63
2022/02/24 21:27:00;;;;;;;21.67;10.20;;;;;;;;;;5013859;28;20482;-62
2022/02/24 21:29:26;;;;;;;22.95;10.77;;;;;;;;;;5013948;28;20109;-63
2022/02/24 21:31:52;;;;;;;24.80;10.55;;;;;;;;;;5012700;28;20034;-63
2022/02/24 21:34:18;;;;;;;25.30;10.98;;;;;;;;;;5012623;28;20108;-63
2022/02/24 21:36:44;;;;;;;25.40;10.57;;;;;;;;;;5013364;28;20030;-61
2022/02/24 21:39:10;;;;;;;26.15;11.57;;;;;;;;;;5013535;28;20098;-63
2022/02/24 21:41:37;;;;;;;29.65;12.05;;;;;;;;;;5013885;28;20723;-62
2022/02/24 21:44:03;;;;;;;23.77;11.02;;;;;;;;;;5013441;28;20508;-63
2022/02/24 21:46:29;;;;;;;28.55;11.45;;;;;;;;;;5012362;28;20034;-62
2022/02/24 21:48:55;;;;;;;23.33;10.48;;;;;;;;;;5013660;28;20029;-62
2022/02/24 21:51:21;;;;;;;19.65;9.18;;;;;;;;;;5013219;28;20029;-63
2022/02/24 21:53:47;;;;;;;22.90;10.90;;;;;;;;;;5013051;28;20485;-62
2022/02/24 21:56:13;;;;;;;17.90;8.43;;;;;;;;;;5013121;28;20029;-63
2022/02/24 21:58:40;;;;;;;23.33;9.52;;;;;;;;;;5013364;28;20026;-62
2022/02/24 22:01:06;;;;;;;25.38;10.45;;;;;;;;;;5013260;28;20038;-62
2022/02/24 22:03:32;;;;;;;17.98;9.25;;;;;;;;;;5013085;28;20029;-61
2022/02/24 22:05:58;;;;;;;18.38;7.88;;;;;;;;;;5013076;28;20026;-62
2022/02/24 22:08:24;;;;;;;18.40;7.82;;;;;;;;;;5013080;28;20120;-62
2022/02/24 22:10:50;;;;;;;14.90;7.03;;;;;;;;;;5013310;28;20113;-63
2022/02/24 22:13:17;;;;;;;16.60;7.65;;;;;;;;;;5012445;28;20422;-63
2022/02/24 22:15:43;;;;;;;15.52;7.50;;;;;;;;;;5012890;28;20094;-63
2022/02/24 22:18:10;;;;;;;17.35;7.05;;;;;;;;;;5013004;28;20072;-71
2022/02/24 22:20:36;;;;;;;14.05;7.00;;;;;;;;;;5012978;28;20061;-63
2022/02/24 22:23:03;;;;;;;19.40;7.60;;;;;;;;;;5011669;28;20100;-63
2022/02/24 22:25:30;;;;;;;20.38;8.15;;;;;;;;;;5013324;28;20165;-63
2022/02/24 22:27:56;;;;;;;24.00;7.85;;;;;;;;;;5012948;28;20050;-62
2022/02/24 22:30:22;;;;;;;15.60;6.97;;;;;;;;;;5013047;28;20041;-63
2022/02/24 22:32:48;;;;;;;20.80;7.68;;;;;;;;;;5013185;28;20030;-63
2022/02/24 22:35:15;;;;;;;17.08;6.80;;;;;;;;;;5013041;28;20124;-62
2022/02/24 22:37:41;;;;;;;19.20;7.80;;;;;;;;;;5012674;28;20497;-63
2022/02/24 22:40:08;;;;;;;17.15;7.75;;;;;;;;;;5012834;28;20030;-63
2022/02/24 22:42:34;;;;;;;18.35;7.28;;;;;;;;;;5012518;28;20083;-63
2022/02/24 22:45:00;;;;;;;17.65;7.07;;;;;;;;;;5012523;28;20069;-63
2022/02/24 22:47:26;;;;;;;19.48;8.10;;;;;;;;;;5012860;28;20034;-62
2022/02/24 22:49:53;;;;;;;22.42;8.43;;;;;;;;;;5012744;28;20022;-63
2022/02/24 22:52:19;;;;;;;19.35;8.63;;;;;;;;;;5012430;28;20076;-62
2022/02/24 22:54:45;;;;;;;23.17;8.23;;;;;;;;;;5017070;28;20440;-69
2022/02/24 22:57:11;;;;;;;19.92;8.35;;;;;;;;;;5020083;28;20032;-61
2022/02/24 22:59:38;;;;;;;17.13;7.82;;;;;;;;;;5020922;28;20465;-61
2022/02/24 23:02:04;;;;;;;16.30;7.50;;;;;;;;;;5020705;28;20033;-62
2022/02/24 23:07:15;;;;;;;19.02;8.27;;;;;;;;;;5018664;28;20041;-61
2022/02/24 23:09:42;;;;;;;16.40;7.97;;;;;;;;;;5020228;28;20799;-62
2022/02/24 23:12:08;;;;;;;20.13;8.02;;;;;;;;;;5021540;28;20021;-61
2022/02/24 23:14:34;;;;;;;15.95;7.85;;;;;;;;;;5018610;28;20494;-62
2022/02/24 23:17:00;;;;;;;21.63;8.00;;;;;;;;;;5019940;28;20151;-62
2022/02/24 23:19:26;;;;;;;17.83;8.15;;;;;;;;;;5021459;28;20029;-63
2022/02/24 23:21:52;;;;;;;15.57;7.28;;;;;;;;;;5019758;28;20116;-63
2022/02/24 23:24:18;;;;;;;22.77;7.97;;;;;;;;;;5012753;28;20462;-62
2022/02/24 23:26:44;;;;;;;19.80;8.40;;;;;;;;;;5011800;28;20398;-62
2022/02/24 23:29:10;;;;;;;22.60;7.97;;;;;;;;;;5011871;28;20428;-62
2022/02/24 23:31:37;;;;;;;15.63;7.18;;;;;;;;;;5011624;28;20026;-62
2022/02/24 23:34:03;;;;;;;20.83;8.15;;;;;;;;;;5011868;28;20092;-62
2022/02/24 23:36:29;;;;;;;18.00;7.47;;;;;;;;;;5011735;28;20032;-62
2022/02/24 23:38:55;;;;;;;21.73;7.63;;;;;;;;;;5011692;28;20037;-61
2022/02/24 23:41:22;;;;;;;16.67;7.32;;;;;;;;;;5011672;28;20021;-62
2022/02/24 23:43:49;;;;;;;16.63;7.47;;;;;;;;;;5011428;28;20032;-62
2022/02/24 23:46:15;;;;;;;18.73;7.10;;;;;;;;;;5011380;28;20072;-63
2022/02/24 23:48:41;;;;;;;18.83;8.05;;;;;;;;;;5011710;28;20048;-65
2022/02/24 23:51:07;;;;;;;20.05;7.97;;;;;;;;;;5011386;28;20029;-65
2022/02/24 23:53:33;;;;;;;14.63;6.88;;;;;;;;;;5011465;28;20112;-62
2022/02/24 23:56:00;;;;;;;18.27;7.43;;;;;;;;;;5011664;28;20041;-65
2022/02/24 23:58:26;;;;;;;17.60;7.10;;;;;;;;;;5011660;28;20032;-62
